Elton, Wisconsin
Current Conditions -  °F | °C
As of 11:35 AM on Friday 24 Oct 2014 (Local Time) from KAIG Reporting Station
Haze Haze  
Wind Chill: 44°   Ceiling: 300
Heat Index: 46°   Visibility: 4mi
Dew Point: 46°   Wind: 5mph
Humidity: 100%   Direction: 200°SSW
Pressure: 29.98"   Gusts: NA
Location:  45.17°N, 88.89°W
Report Text: KAIG 241635Z AUTO 20004KT 4SM BR OVC003 08/08 A2998 RMK AO2 T00800080
Loading
Personal Weather Stations






























Interactive Weather Map New forecast layout! Learn more

10-Day Weather Forecast

Advertisements
Track Severe Weather on mobile